KILE/ILE METAR and TAF weather

Enter ICAO airport designator
Station Type Date Time Source
KILE METAR 2022/12/01 00:56 UTC NOAA

KILE 010056Z AUTO 03006KT 10SM CLR 07/M04 A3039 RMK AO2 SLP293 T00671039


Station Type Date Time Source
KILE Decoded METAR 2022/12/01 00:56 UTC NOAA

Killeen, Skylark Field Airport, TX, United States (KILE) 31-05N 097-41W
Nov 30, 2022 - 07:56 PM EST / 2022.12.01 0056 UTC
Wind: from the NNE (030 degrees) at 7 MPH (6 KT):0
Visibility: 10 mile(s):0
Sky conditions: clear
Temperature: 44.1 F (6.7 C)
Dew Point: 25.0 F (-3.9 C)
Relative Humidity: 46%
Pressure (altimeter): 30.39 in. Hg (1029 hPa)
ob: KILE 010056Z AUTO 03006KT 10SM CLR 07/M04 A3039 RMK AO2 SLP293 T00671039
cycle: 1

Station Type Date Time Source
KILE TAF UTC NOAA

Error!

Example: see airport list